createdAt,value
2022-08-08T04:00:36.388Z,101086.73
2022-08-08T04:03:57.015Z,101086.13
2022-08-08T04:06:29.852Z,101088.26
2022-08-08T04:09:06.849Z,101089.64
2022-08-08T04:11:48.383Z,101092.20
2022-08-08T04:14:36.134Z,101090.28
2022-08-08T04:17:22.836Z,101087.05
2022-08-08T04:19:56.333Z,101089.13
2022-08-08T04:22:29.330Z,101090.51
2022-08-08T04:24:59.632Z,101093.07
2022-08-08T04:28:01.499Z,101095.55
2022-08-08T04:30:20.364Z,101100.05
2022-08-08T04:32:54.375Z,101100.80
2022-08-08T04:35:26.504Z,101102.75
2022-08-08T04:37:57.099Z,101104.53
2022-08-08T04:40:39.445Z,101103.08
2022-08-08T04:43:20.340Z,101107.09
2022-08-08T04:45:54.303Z,101105.32
2022-08-08T04:48:22.388Z,101107.25
2022-08-08T04:50:51.497Z,101107.03
2022-08-08T04:54:36.156Z,101110.59
2022-08-08T04:56:13.419Z,101114.63
2022-08-08T04:58:41.357Z,101118.64
2022-08-08T05:01:11.031Z,101117.68
2022-08-08T05:04:11.680Z,101118.15
2022-08-08T05:06:39.003Z,101117.38
2022-08-08T05:09:09.540Z,101116.91
2022-08-08T05:11:41.356Z,101119.61
2022-08-08T05:14:12.580Z,101119.45
2022-08-08T05:16:53.304Z,101117.24
2022-08-08T05:20:09.447Z,101121.22
2022-08-08T05:22:17.607Z,101121.17
2022-08-08T05:24:48.759Z,101113.81
2022-08-08T05:27:18.149Z,101111.39
2022-08-08T05:29:51.816Z,101114.16
2022-08-08T05:32:35.803Z,101115.52
2022-08-08T05:35:05.793Z,101114.98
2022-08-08T05:37:52.821Z,101116.89
2022-08-08T05:40:33.100Z,101118.41
2022-08-08T05:43:17.123Z,101119.59
2022-08-08T05:46:08.633Z,101115.05
2022-08-08T05:48:41.778Z,101111.14
2022-08-08T05:51:16.116Z,101112.45
2022-08-08T05:54:25.515Z,101111.08
2022-08-08T05:56:47.045Z,101115.50
2022-08-08T05:59:58.915Z,101111.20
2022-08-08T06:02:43.593Z,101112.98
2022-08-08T06:05:33.822Z,101111.48
2022-08-08T06:08:28.141Z,101110.66
2022-08-08T06:11:01.780Z,101113.27
2022-08-08T06:13:36.190Z,101117.71
2022-08-08T06:16:16.607Z,101116.50
2022-08-08T06:18:55.766Z,101119.59
2022-08-08T06:21:32.782Z,101119.20
2022-08-08T06:24:26.974Z,101117.33
2022-08-08T06:27:06.476Z,101117.73
2022-08-08T06:30:00.508Z,101122.02
2022-08-08T06:32:52.516Z,101119.25
2022-08-08T06:36:08.051Z,101118.53
2022-08-08T06:38:20.034Z,101120.66
2022-08-08T06:40:54.133Z,101125.76
2022-08-08T06:43:34.333Z,101126.48
2022-08-08T06:46:16.251Z,101125.89
2022-08-08T06:48:48.674Z,101127.57
2022-08-08T06:51:17.498Z,101129.08
2022-08-08T06:53:50.826Z,101130.05
2022-08-08T06:56:25.138Z,101127.86
2022-08-08T06:58:55.109Z,101130.35
2022-08-08T07:02:17.928Z,101130.98
2022-08-08T07:04:41.375Z,101131.66
2022-08-08T07:07:15.974Z,101131.29
2022-08-08T07:10:00.299Z,101133.09
2022-08-08T07:12:54.121Z,101132.27
2022-08-08T07:16:04.635Z,101134.30
2022-08-08T07:18:50.613Z,101133.13
2022-08-08T07:21:33.624Z,101132.13
2022-08-08T07:24:18.708Z,101133.82
2022-08-08T07:26:55.094Z,101134.58
2022-08-08T07:30:00.999Z,101131.95
2022-08-08T07:32:15.688Z,101133.52
2022-08-08T07:35:00.265Z,101135.88
2022-08-08T07:37:49.442Z,101133.37
2022-08-08T07:40:32.409Z,101134.99
2022-08-08T07:43:08.786Z,101139.98
2022-08-08T07:46:05.070Z,101138.40
2022-08-08T07:48:34.272Z,101140.31
2022-08-08T07:51:04.270Z,101139.81
2022-08-08T07:54:03.003Z,101138.45
2022-08-08T07:57:10.438Z,101134.46
2022-08-08T08:00:05.646Z,101131.90
2022-08-08T08:03:20.879Z,101132.21
2022-08-08T08:05:55.236Z,101129.61
2022-08-08T08:08:51.949Z,101126.91
2022-08-08T08:11:38.101Z,101129.42
2022-08-08T08:14:19.437Z,101131.73
2022-08-08T08:16:50.854Z,101136.09
2022-08-08T08:19:23.826Z,101139.55
2022-08-08T08:21:57.187Z,101142.78
2022-08-08T08:24:35.335Z,101137.60
2022-08-08T08:27:04.856Z,101136.48
2022-08-08T08:29:38.904Z,101132.11
2022-08-08T08:32:08.884Z,101131.75
2022-08-08T08:34:43.189Z,101132.48
2022-08-08T08:37:15.528Z,101130.61
2022-08-08T08:40:02.003Z,101132.34
2022-08-08T08:42:36.195Z,101130.24
2022-08-08T08:45:21.203Z,101130.02
2022-08-08T08:48:01.091Z,101132.08
2022-08-08T08:50:37.268Z,101134.17
2022-08-08T08:53:28.220Z,101135.14
2022-08-08T08:56:09.475Z,101134.73
2022-08-08T08:58:46.790Z,101134.77
2022-08-08T09:01:37.807Z,101136.75
2022-08-08T09:04:30.879Z,101132.02
2022-08-08T09:07:12.102Z,101129.14
2022-08-08T09:09:55.093Z,101125.02
2022-08-08T09:12:39.837Z,101118.98
2022-08-08T09:15:14.986Z,101125.41
2022-08-08T09:17:55.871Z,101127.94
2022-08-08T09:21:59.387Z,101125.47
2022-08-08T09:23:17.385Z,101123.62
2022-08-08T09:25:58.368Z,101125.93
2022-08-08T09:28:40.338Z,101120.41
2022-08-08T09:31:56.991Z,101121.66
2022-08-08T09:34:39.026Z,101119.46
2022-08-08T09:37:57.787Z,101118.89
2022-08-08T09:40:11.119Z,101120.44
2022-08-08T09:42:44.230Z,101122.17
2022-08-08T09:45:54.909Z,101118.30
2022-08-08T09:48:18.561Z,101123.89
2022-08-08T09:50:56.148Z,101125.17
2022-08-08T09:53:56.551Z,101120.49
2022-08-08T09:56:34.525Z,101122.92
2022-08-08T09:59:50.533Z,101121.91
2022-08-08T10:02:12.680Z,101121.40
2022-08-08T10:04:47.827Z,101120.35
2022-08-08T10:07:17.536Z,101124.98
2022-08-08T10:10:00.248Z,101122.41
2022-08-08T10:12:53.289Z,101120.23
2022-08-08T10:15:36.091Z,101120.31
2022-08-08T10:18:17.481Z,101117.86
2022-08-08T10:21:00.644Z,101115.77
2022-08-08T10:23:42.217Z,101115.79
2022-08-08T10:26:26.112Z,101117.56
2022-08-08T10:29:07.696Z,101117.79
2022-08-08T10:31:59.912Z,101114.27
2022-08-08T10:34:29.132Z,101109.83
2022-08-08T10:36:59.567Z,101118.47
2022-08-08T10:39:42.841Z,101111.57
2022-08-08T10:42:16.693Z,101109.55
2022-08-08T10:44:45.821Z,101112.40
2022-08-08T10:47:16.530Z,101112.65
2022-08-08T10:50:01.899Z,101113.02
2022-08-08T10:52:36.824Z,101110.89
2022-08-08T10:55:39.459Z,101111.88
2022-08-08T10:58:11.817Z,101114.86
2022-08-08T11:00:52.534Z,101119.59
2022-08-08T11:03:57.979Z,101119.37
2022-08-08T11:06:30.767Z,101114.20
2022-08-08T11:09:19.471Z,101117.60
2022-08-08T11:12:05.758Z,101116.04
2022-08-08T11:14:56.710Z,101119.29
2022-08-08T11:18:00.016Z,101118.12
2022-08-08T11:20:18.503Z,101119.44
2022-08-08T11:23:00.647Z,101123.06
2022-08-08T11:25:52.809Z,101124.16
2022-08-08T11:28:29.153Z,101118.67
2022-08-08T11:31:04.012Z,101118.02
2022-08-08T11:33:52.651Z,101119.18
2022-08-08T11:36:29.287Z,101116.16
2022-08-08T11:38:58.456Z,101119.91
2022-08-08T11:41:32.416Z,101121.84
2022-08-08T11:44:05.555Z,101115.77
2022-08-08T11:46:36.802Z,101119.79
2022-08-08T11:49:09.537Z,101116.48
2022-08-08T11:51:49.825Z,101117.80
2022-08-08T11:54:38.269Z,101115.69
2022-08-08T11:57:23.992Z,101117.01
2022-08-08T12:00:05.983Z,101114.87
2022-08-08T12:02:57.387Z,101115.73
2022-08-08T12:05:36.616Z,101115.80
2022-08-08T12:08:04.913Z,101117.09
2022-08-08T12:10:34.021Z,101122.27
2022-08-08T12:13:14.319Z,101121.99
2022-08-08T12:15:59.663Z,101121.88
2022-08-08T12:18:27.234Z,101123.05
2022-08-08T12:20:58.934Z,101123.40
2022-08-08T12:23:42.982Z,101120.88
2022-08-08T12:26:36.171Z,101122.37
2022-08-08T12:29:41.880Z,101124.33
2022-08-08T12:32:20.279Z,101123.08
2022-08-08T12:35:01.363Z,101120.17
2022-08-08T12:37:40.607Z,101120.11
2022-08-08T12:40:23.862Z,101118.71
2022-08-08T12:42:53.147Z,101118.63
2022-08-08T12:45:57.903Z,101119.45
2022-08-08T12:48:37.862Z,101119.50
2022-08-08T12:51:11.237Z,101116.00
2022-08-08T12:53:59.456Z,101113.64
2022-08-08T12:56:36.596Z,101111.60
2022-08-08T12:59:18.256Z,101107.93
2022-08-08T13:02:08.030Z,101109.27
2022-08-08T13:04:36.360Z,101108.58
2022-08-08T13:07:11.832Z,101106.05
2022-08-08T13:10:04.350Z,101101.61
2022-08-08T13:12:46.001Z,101101.50
2022-08-08T13:15:19.482Z,101100.90
2022-08-08T13:18:07.754Z,101096.70
2022-08-08T13:20:45.961Z,101099.48
2022-08-08T13:23:36.758Z,101099.13
2022-08-08T13:26:14.913Z,101094.20
2022-08-08T13:28:45.442Z,101094.98
2022-08-08T13:31:16.399Z,101099.43
2022-08-08T13:33:50.998Z,101104.18
2022-08-08T13:36:26.093Z,101104.09
2022-08-08T13:38:59.506Z,101103.29
2022-08-08T13:41:37.634Z,101102.98
2022-08-08T13:44:11.010Z,101105.48
2022-08-08T13:46:40.495Z,101107.58
2022-08-08T13:50:36.437Z,101108.66
2022-08-08T13:52:09.875Z,101106.98
2022-08-08T13:54:44.228Z,101109.70
2022-08-08T13:57:17.238Z,101108.06
2022-08-08T13:59:49.151Z,101104.63
2022-08-08T14:02:21.746Z,101108.48
2022-08-08T14:05:05.093Z,101104.55
2022-08-08T14:07:52.304Z,101102.77
2022-08-08T14:10:33.824Z,101100.56
2022-08-08T14:13:30.363Z,101101.14
2022-08-08T14:16:08.032Z,101104.30
2022-08-08T14:18:59.420Z,101108.80
2022-08-08T14:21:48.747Z,101105.89
2022-08-08T14:24:33.853Z,101109.58
2022-08-08T14:27:07.343Z,101113.76
2022-08-08T14:29:39.607Z,101112.77
2022-08-08T14:32:11.785Z,101112.77
2022-08-08T14:34:42.044Z,101113.38
2022-08-08T14:37:12.992Z,101114.40
2022-08-08T14:40:06.451Z,101114.52
2022-08-08T14:42:55.177Z,101119.83
2022-08-08T14:45:33.101Z,101115.12
2022-08-08T14:48:16.400Z,101116.21
2022-08-08T14:51:04.980Z,101112.17
2022-08-08T14:53:37.129Z,101109.80
2022-08-08T14:56:05.073Z,101111.75
2022-08-08T14:58:33.438Z,101113.48
2022-08-08T15:01:04.809Z,101111.98
2022-08-08T15:03:53.341Z,101113.85
2022-08-08T15:06:22.225Z,101113.29
2022-08-08T15:08:55.039Z,101120.36
2022-08-08T15:11:23.521Z,101120.48
2022-08-08T15:14:01.559Z,101120.98
2022-08-08T15:16:34.774Z,101123.95
2022-08-08T15:19:04.236Z,101121.54
2022-08-08T15:21:32.394Z,101120.30
2022-08-08T15:24:00.740Z,101120.41
2022-08-08T15:26:28.941Z,101122.74
2022-08-08T15:28:57.010Z,101118.58
2022-08-08T15:31:56.235Z,101120.45
2022-08-08T15:34:18.586Z,101117.67
2022-08-08T15:37:03.564Z,101118.25
2022-08-08T15:39:37.467Z,101120.15
2022-08-08T15:42:13.337Z,101116.36
2022-08-08T15:44:56.956Z,101119.25
2022-08-08T15:47:24.437Z,101119.55
2022-08-08T15:49:55.607Z,101119.87
2022-08-08T15:52:24.866Z,101122.80
2022-08-08T15:54:53.413Z,101117.17
2022-08-08T15:57:22.002Z,101115.52
2022-08-08T16:00:11.902Z,101118.30
2022-08-08T16:02:50.282Z,101121.15
2022-08-08T16:05:23.936Z,101119.17
2022-08-08T16:08:00.897Z,101115.53
2022-08-08T16:13:27.453Z,101114.52
2022-08-08T16:13:43.653Z,101115.96
2022-08-08T16:16:18.910Z,101118.53
2022-08-08T16:18:57.712Z,101115.92
2022-08-08T16:21:32.207Z,101113.65
2022-08-08T16:24:07.729Z,101114.60
2022-08-08T16:26:45.068Z,101114.14
2022-08-08T16:29:37.273Z,101113.77
2022-08-08T16:32:11.216Z,101118.08
2022-08-08T16:34:49.443Z,101119.04
2022-08-08T16:37:18.135Z,101117.83
2022-08-08T16:40:01.852Z,101120.25
2022-08-08T16:42:30.541Z,101124.17
2022-08-08T16:44:58.572Z,101120.90
2022-08-08T16:47:40.514Z,101123.54
2022-08-08T16:50:16.697Z,101122.11
2022-08-08T16:55:20.746Z,101121.75
2022-08-08T16:55:55.100Z,101122.98
2022-08-08T16:58:29.389Z,101124.41
2022-08-08T17:01:12.117Z,101126.82
2022-08-08T17:04:00.417Z,101127.04
2022-08-08T17:06:37.252Z,101129.00
2022-08-08T17:09:15.279Z,101128.94
2022-08-08T17:11:48.745Z,101131.37
2022-08-08T17:14:27.197Z,101134.88
2022-08-08T17:17:23.030Z,101139.61
2022-08-08T17:19:55.011Z,101143.02
2022-08-08T17:22:39.417Z,101142.12
2022-08-08T17:25:12.814Z,101142.38
2022-08-08T17:27:46.022Z,101143.74
2022-08-08T17:30:27.643Z,101143.31
2022-08-08T17:34:35.831Z,101146.19
2022-08-08T17:35:53.877Z,101147.11
2022-08-08T17:38:25.444Z,101148.15
2022-08-08T17:40:59.293Z,101148.92
2022-08-08T17:43:26.948Z,101150.34
2022-08-08T17:45:55.721Z,101150.23
2022-08-08T17:48:30.718Z,101153.52
2022-08-08T17:51:00.893Z,101154.99
2022-08-08T17:53:43.115Z,101158.12
2022-08-08T17:56:12.317Z,101159.56
2022-08-08T17:58:40.654Z,101158.67
2022-08-08T18:01:14.989Z,101159.80
2022-08-08T18:04:03.016Z,101160.88
2022-08-08T18:06:31.726Z,101160.66
2022-08-08T18:09:01.739Z,101164.48
2022-08-08T18:11:32.420Z,101165.97
2022-08-08T18:14:06.022Z,101164.96
2022-08-08T18:16:52.771Z,101164.81
2022-08-08T18:19:24.143Z,101168.59
2022-08-08T18:22:00.911Z,101167.86
2022-08-08T18:24:31.347Z,101170.64
2022-08-08T18:27:06.202Z,101174.55
2022-08-08T18:29:46.274Z,101176.50
2022-08-08T18:32:17.240Z,101184.60
2022-08-08T18:34:49.407Z,101182.66
2022-08-08T18:37:34.030Z,101187.06
2022-08-08T18:40:07.052Z,101189.80
2022-08-08T18:42:50.011Z,101191.67
2022-08-08T18:46:00.726Z,101192.77
2022-08-08T18:48:08.447Z,101192.23
2022-08-08T18:50:39.596Z,101193.59
2022-08-08T18:53:18.488Z,101201.41
2022-08-08T18:55:48.863Z,101198.92
2022-08-08T18:58:17.107Z,101203.20
2022-08-08T19:00:50.200Z,101205.17
2022-08-08T19:03:18.683Z,101205.61
2022-08-08T19:05:51.687Z,101208.96
2022-08-08T19:08:23.882Z,101210.26
2022-08-08T19:10:55.454Z,101211.14
2022-08-08T19:13:25.162Z,101212.37
2022-08-08T19:15:55.722Z,101209.11
2022-08-08T19:18:32.870Z,101211.02
2022-08-08T19:21:29.207Z,101211.65
2022-08-08T19:23:59.627Z,101212.98
2022-08-08T19:26:30.436Z,101212.36
2022-08-08T19:29:04.893Z,101214.34
2022-08-08T19:31:35.506Z,101214.75
2022-08-08T19:34:36.660Z,101216.64
2022-08-08T19:36:59.895Z,101218.70
2022-08-08T19:39:30.885Z,101221.45
2022-08-08T19:42:05.757Z,101225.26
2022-08-08T19:44:45.393Z,101227.11
2022-08-08T19:47:15.737Z,101230.80
2022-08-08T19:50:00.161Z,101230.61
2022-08-08T19:52:35.570Z,101231.48
2022-08-08T19:55:12.234Z,101232.71
2022-08-08T19:57:42.604Z,101239.12
2022-08-08T20:00:28.938Z,101238.89
2022-08-08T20:03:01.093Z,101237.88
2022-08-08T20:06:14.474Z,101237.95
2022-08-08T20:08:28.024Z,101244.98
2022-08-08T20:11:06.552Z,101247.52
2022-08-08T20:14:32.043Z,101248.19
2022-08-08T20:16:29.882Z,101247.39
2022-08-08T20:18:57.379Z,101249.85
2022-08-08T20:21:26.052Z,101246.88
2022-08-08T20:23:57.738Z,101247.21
2022-08-08T20:26:29.971Z,101249.20
2022-08-08T20:29:04.063Z,101253.30
2022-08-08T20:31:47.295Z,101250.14
2022-08-08T20:34:28.987Z,101249.30
2022-08-08T20:37:03.662Z,101255.17
2022-08-08T20:39:38.905Z,101259.95
2022-08-08T20:42:29.030Z,101262.40
2022-08-08T20:44:58.624Z,101256.91
2022-08-08T20:47:36.291Z,101259.40
2022-08-08T20:50:09.869Z,101258.89
2022-08-08T20:52:39.437Z,101258.48
2022-08-08T20:55:22.450Z,101259.57
2022-08-08T20:57:57.838Z,101262.52
2022-08-08T21:00:26.184Z,101261.13
2022-08-08T21:02:53.378Z,101263.20
2022-08-08T21:05:21.481Z,101261.55
2022-08-08T21:08:37.305Z,101263.63
2022-08-08T21:10:39.584Z,101264.16
2022-08-08T21:13:08.797Z,101267.38
2022-08-08T21:16:05.618Z,101264.54
2022-08-08T21:18:29.792Z,101269.09
2022-08-08T21:21:00.084Z,101272.38
2022-08-08T21:23:59.253Z,101272.13
2022-08-08T21:26:21.211Z,101272.80
2022-08-08T21:29:00.569Z,101270.66
2022-08-08T21:31:58.747Z,101271.73
2022-08-08T21:34:18.681Z,101275.54
2022-08-08T21:36:49.438Z,101275.98
2022-08-08T21:39:18.600Z,101274.47
2022-08-08T21:41:53.683Z,101273.92
2022-08-08T21:44:28.135Z,101272.85
2022-08-08T21:48:07.086Z,101273.61
2022-08-08T21:49:43.556Z,101279.30
2022-08-08T21:54:33.124Z,101283.19
2022-08-08T21:56:18.875Z,101280.64
2022-08-08T21:58:05.566Z,101277.89
2022-08-08T22:00:40.707Z,101277.80
2022-08-08T22:03:11.201Z,101275.11
2022-08-08T22:05:48.495Z,101277.95
2022-08-08T22:08:17.022Z,101274.92
2022-08-08T22:10:54.168Z,101275.60
2022-08-08T22:13:22.927Z,101275.95
2022-08-08T22:15:58.905Z,101275.73
2022-08-08T22:18:31.247Z,101271.36
2022-08-08T22:21:14.136Z,101275.13
2022-08-08T22:23:51.651Z,101271.35
2022-08-08T22:26:29.244Z,101269.64
2022-08-08T22:29:13.589Z,101271.29
2022-08-08T22:31:58.256Z,101269.47
2022-08-08T22:34:33.228Z,101271.91
2022-08-08T22:37:14.963Z,101274.02
2022-08-08T22:40:00.404Z,101270.31
2022-08-08T22:42:31.975Z,101268.83
2022-08-08T22:45:13.030Z,101271.73
2022-08-08T22:47:47.023Z,101275.33
2022-08-08T22:50:27.141Z,101273.38
2022-08-08T22:53:24.151Z,101274.48
2022-08-08T22:55:58.785Z,101275.77
2022-08-08T22:58:33.978Z,101275.27
